Terminal Aerodrome Forecast
Issued by NWS

Home | Current Version | Previous Version | Text Only | Print | Product List | Glossary On
Versions: 1 2 3 4 5 6 7 8 9 10 11 12 13 14 15 16 17 18 19 20 21 22 23 24 25
624
FTUS43 KDVN 051703 AAB
TAFBRL
TAF AMD
KBRL 051703Z 0517/0612 19010KT 1/4SM FG VV002
     FM051900 18010KT 1SM HZ OVC004
     FM052300 15008KT 3SM HZ OVC008
     FM060600 18004KT 2SM BR OVC010=

USA.gov is the U.S. government's official web portal to all federal, state and local government web resources and services.